sensor_id;sensor_type;location;lat;lon;timestamp;P1;durP1;ratioP1;P2;durP2;ratioP2
62401;SDS011;48440;51.224;22.506;2022-11-14T00:02:51;46.92;;;17.63;;
62401;SDS011;48440;51.224;22.506;2022-11-14T00:05:17;44.83;;;17.75;;
62401;SDS011;48440;51.224;22.506;2022-11-14T00:07:43;44.55;;;16.67;;
62401;SDS011;48440;51.224;22.506;2022-11-14T00:10:09;51.92;;;18.83;;
62401;SDS011;48440;51.224;22.506;2022-11-14T00:12:36;45.05;;;17.90;;
62401;SDS011;48440;51.224;22.506;2022-11-14T00:15:01;42.55;;;17.85;;
62401;SDS011;48440;51.224;22.506;2022-11-14T00:17:27;51.42;;;19.55;;
62401;SDS011;48440;51.224;22.506;2022-11-14T00:19:52;51.35;;;19.63;;
62401;SDS011;48440;51.224;22.506;2022-11-14T00:22:18;50.10;;;19.42;;
62401;SDS011;48440;51.224;22.506;2022-11-14T00:24:43;45.17;;;16.27;;
62401;SDS011;48440;51.224;22.506;2022-11-14T00:27:09;44.10;;;15.88;;
62401;SDS011;48440;51.224;22.506;2022-11-14T00:29:34;47.78;;;18.15;;
62401;SDS011;48440;51.224;22.506;2022-11-14T00:32:00;54.03;;;18.75;;
62401;SDS011;48440;51.224;22.506;2022-11-14T00:34:25;42.60;;;16.13;;
62401;SDS011;48440;51.224;22.506;2022-11-14T00:36:51;40.75;;;15.68;;
62401;SDS011;48440;51.224;22.506;2022-11-14T00:39:16;47.22;;;18.45;;
62401;SDS011;48440;51.224;22.506;2022-11-14T00:41:42;45.15;;;17.88;;
62401;SDS011;48440;51.224;22.506;2022-11-14T00:44:07;43.78;;;16.65;;
62401;SDS011;48440;51.224;22.506;2022-11-14T00:46:33;44.00;;;16.65;;
62401;SDS011;48440;51.224;22.506;2022-11-14T00:48:59;41.88;;;17.05;;
62401;SDS011;48440;51.224;22.506;2022-11-14T00:51:25;40.20;;;14.88;;
62401;SDS011;48440;51.224;22.506;2022-11-14T00:53:51;40.70;;;14.18;;
62401;SDS011;48440;51.224;22.506;2022-11-14T00:56:16;39.70;;;15.27;;
62401;SDS011;48440;51.224;22.506;2022-11-14T00:58:42;41.50;;;15.80;;
62401;SDS011;48440;51.224;22.506;2022-11-14T01:01:07;35.13;;;14.90;;
62401;SDS011;48440;51.224;22.506;2022-11-14T01:03:33;35.03;;;16.17;;
62401;SDS011;48440;51.224;22.506;2022-11-14T01:06:02;40.78;;;14.38;;
62401;SDS011;48440;51.224;22.506;2022-11-14T01:08:29;38.22;;;13.95;;
62401;SDS011;48440;51.224;22.506;2022-11-14T01:10:55;35.13;;;13.40;;
62401;SDS011;48440;51.224;22.506;2022-11-14T01:13:20;38.13;;;13.05;;
62401;SDS011;48440;51.224;22.506;2022-11-14T01:15:47;31.17;;;11.82;;
62401;SDS011;48440;51.224;22.506;2022-11-14T01:18:18;31.38;;;12.00;;
62401;SDS011;48440;51.224;22.506;2022-11-14T01:20:46;28.17;;;11.43;;
62401;SDS011;48440;51.224;22.506;2022-11-14T01:23:13;30.48;;;11.80;;
62401;SDS011;48440;51.224;22.506;2022-11-14T01:25:40;26.38;;;11.63;;
62401;SDS011;48440;51.224;22.506;2022-11-14T01:28:16;27.45;;;10.63;;
62401;SDS011;48440;51.224;22.506;2022-11-14T01:30:43;24.13;;;10.07;;
62401;SDS011;48440;51.224;22.506;2022-11-14T01:33:09;29.23;;;11.73;;
62401;SDS011;48440;51.224;22.506;2022-11-14T01:35:35;26.17;;;10.43;;
62401;SDS011;48440;51.224;22.506;2022-11-14T01:38:02;25.45;;;11.13;;
62401;SDS011;48440;51.224;22.506;2022-11-14T01:40:28;32.78;;;10.75;;
62401;SDS011;48440;51.224;22.506;2022-11-14T01:48:17;30.70;;;11.68;;
62401;SDS011;48440;51.224;22.506;2022-11-14T01:50:52;23.77;;;9.50;;
62401;SDS011;48440;51.224;22.506;2022-11-14T01:53:20;27.23;;;10.82;;
62401;SDS011;48440;51.224;22.506;2022-11-14T01:55:46;24.20;;;10.02;;
62401;SDS011;48440;51.224;22.506;2022-11-14T01:58:11;28.02;;;9.90;;
62401;SDS011;48440;51.224;22.506;2022-11-14T02:00:38;24.63;;;10.43;;
62401;SDS011;48440;51.224;22.506;2022-11-14T02:03:04;20.67;;;8.73;;
62401;SDS011;48440;51.224;22.506;2022-11-14T02:05:30;23.92;;;9.85;;
62401;SDS011;48440;51.224;22.506;2022-11-14T02:07:56;28.90;;;9.98;;
62401;SDS011;48440;51.224;22.506;2022-11-14T02:10:22;24.45;;;9.35;;
62401;SDS011;48440;51.224;22.506;2022-11-14T02:12:48;23.00;;;10.10;;
62401;SDS011;48440;51.224;22.506;2022-11-14T02:15:14;24.33;;;9.70;;
62401;SDS011;48440;51.224;22.506;2022-11-14T02:17:41;24.40;;;9.68;;
62401;SDS011;48440;51.224;22.506;2022-11-14T02:22:40;27.92;;;10.02;;
62401;SDS011;48440;51.224;22.506;2022-11-14T02:25:07;22.95;;;8.45;;
62401;SDS011;48440;51.224;22.506;2022-11-14T02:27:34;21.65;;;9.43;;
62401;SDS011;48440;51.224;22.506;2022-11-14T02:30:06;26.10;;;9.00;;
62401;SDS011;48440;51.224;22.506;2022-11-14T02:32:34;21.75;;;9.30;;
62401;SDS011;48440;51.224;22.506;2022-11-14T02:34:59;22.88;;;8.88;;
62401;SDS011;48440;51.224;22.506;2022-11-14T02:37:25;17.67;;;7.70;;
62401;SDS011;48440;51.224;22.506;2022-11-14T02:39:50;18.98;;;7.20;;
62401;SDS011;48440;51.224;22.506;2022-11-14T02:42:16;15.50;;;6.25;;
62401;SDS011;48440;51.224;22.506;2022-11-14T02:44:41;17.38;;;7.05;;
62401;SDS011;48440;51.224;22.506;2022-11-14T02:47:07;19.30;;;7.65;;
62401;SDS011;48440;51.224;22.506;2022-11-14T02:49:32;19.15;;;7.82;;
62401;SDS011;48440;51.224;22.506;2022-11-14T02:51:58;16.92;;;7.10;;
62401;SDS011;48440;51.224;22.506;2022-11-14T02:54:23;18.30;;;6.70;;
62401;SDS011;48440;51.224;22.506;2022-11-14T02:56:49;18.08;;;6.70;;
62401;SDS011;48440;51.224;22.506;2022-11-14T02:59:14;19.98;;;7.35;;
62401;SDS011;48440;51.224;22.506;2022-11-14T03:01:40;18.55;;;7.05;;
62401;SDS011;48440;51.224;22.506;2022-11-14T03:04:05;21.50;;;6.32;;
62401;SDS011;48440;51.224;22.506;2022-11-14T03:06:31;13.55;;;6.15;;
62401;SDS011;48440;51.224;22.506;2022-11-14T03:08:56;16.55;;;5.78;;
62401;SDS011;48440;51.224;22.506;2022-11-14T03:11:22;13.32;;;5.50;;
62401;SDS011;48440;51.224;22.506;2022-11-14T03:13:47;14.77;;;5.25;;
62401;SDS011;48440;51.224;22.506;2022-11-14T03:16:13;14.73;;;5.35;;
62401;SDS011;48440;51.224;22.506;2022-11-14T03:18:38;13.70;;;6.20;;
62401;SDS011;48440;51.224;22.506;2022-11-14T03:21:05;10.30;;;4.88;;
62401;SDS011;48440;51.224;22.506;2022-11-14T03:23:35;13.23;;;5.95;;
62401;SDS011;48440;51.224;22.506;2022-11-14T03:26:02;13.85;;;6.40;;
62401;SDS011;48440;51.224;22.506;2022-11-14T03:28:29;13.20;;;5.28;;
62401;SDS011;48440;51.224;22.506;2022-11-14T03:30:55;15.45;;;5.43;;
62401;SDS011;48440;51.224;22.506;2022-11-14T03:33:20;12.45;;;5.15;;
62401;SDS011;48440;51.224;22.506;2022-11-14T03:35:47;14.13;;;6.18;;
62401;SDS011;48440;51.224;22.506;2022-11-14T03:38:13;12.27;;;5.15;;
62401;SDS011;48440;51.224;22.506;2022-11-14T03:40:39;12.77;;;5.32;;
62401;SDS011;48440;51.224;22.506;2022-11-14T03:43:05;11.35;;;5.10;;
62401;SDS011;48440;51.224;22.506;2022-11-14T03:45:30;11.13;;;4.93;;
62401;SDS011;48440;51.224;22.506;2022-11-14T03:47:56;11.43;;;4.82;;
62401;SDS011;48440;51.224;22.506;2022-11-14T03:50:21;13.95;;;4.80;;
62401;SDS011;48440;51.224;22.506;2022-11-14T03:52:49;12.55;;;5.50;;
62401;SDS011;48440;51.224;22.506;2022-11-14T03:55:15;10.07;;;5.35;;
62401;SDS011;48440;51.224;22.506;2022-11-14T03:57:41;14.25;;;5.53;;
62401;SDS011;48440;51.224;22.506;2022-11-14T04:00:07;11.35;;;4.32;;
62401;SDS011;48440;51.224;22.506;2022-11-14T04:02:33;13.85;;;4.38;;
62401;SDS011;48440;51.224;22.506;2022-11-14T04:04:58;11.05;;;4.20;;
62401;SDS011;48440;51.224;22.506;2022-11-14T04:07:24;10.57;;;4.60;;
62401;SDS011;48440;51.224;22.506;2022-11-14T04:09:49;9.07;;;4.75;;
62401;SDS011;48440;51.224;22.506;2022-11-14T04:12:16;11.25;;;4.93;;
62401;SDS011;48440;51.224;22.506;2022-11-14T04:14:42;10.90;;;4.15;;
62401;SDS011;48440;51.224;22.506;2022-11-14T04:17:07;11.73;;;5.05;;
62401;SDS011;48440;51.224;22.506;2022-11-14T04:19:33;11.43;;;4.75;;
62401;SDS011;48440;51.224;22.506;2022-11-14T04:21:59;10.63;;;4.03;;
62401;SDS011;48440;51.224;22.506;2022-11-14T04:24:24;11.63;;;4.43;;
62401;SDS011;48440;51.224;22.506;2022-11-14T04:26:50;9.32;;;3.38;;
62401;SDS011;48440;51.224;22.506;2022-11-14T04:29:15;8.63;;;3.65;;
62401;SDS011;48440;51.224;22.506;2022-11-14T04:31:41;7.72;;;3.90;;
62401;SDS011;48440;51.224;22.506;2022-11-14T04:34:06;8.70;;;2.92;;
62401;SDS011;48440;51.224;22.506;2022-11-14T04:36:32;11.93;;;4.18;;
62401;SDS011;48440;51.224;22.506;2022-11-14T04:38:57;9.20;;;3.13;;
62401;SDS011;48440;51.224;22.506;2022-11-14T04:41:23;8.32;;;3.83;;
62401;SDS011;48440;51.224;22.506;2022-11-14T04:43:48;9.95;;;3.28;;
62401;SDS011;48440;51.224;22.506;2022-11-14T04:46:13;11.77;;;4.35;;
62401;SDS011;48440;51.224;22.506;2022-11-14T04:48:39;6.95;;;3.17;;
62401;SDS011;48440;51.224;22.506;2022-11-14T04:51:04;8.23;;;3.55;;
62401;SDS011;48440;51.224;22.506;2022-11-14T04:53:30;7.97;;;3.95;;
62401;SDS011;48440;51.224;22.506;2022-11-14T04:55:55;8.52;;;3.28;;
62401;SDS011;48440;51.224;22.506;2022-11-14T04:58:21;9.05;;;3.97;;
62401;SDS011;48440;51.224;22.506;2022-11-14T05:00:46;9.20;;;4.03;;
62401;SDS011;48440;51.224;22.506;2022-11-14T05:03:12;9.63;;;4.07;;
62401;SDS011;48440;51.224;22.506;2022-11-14T05:05:37;12.10;;;4.40;;
62401;SDS011;48440;51.224;22.506;2022-11-14T05:08:03;10.70;;;5.38;;
62401;SDS011;48440;51.224;22.506;2022-11-14T05:10:28;8.20;;;3.50;;
62401;SDS011;48440;51.224;22.506;2022-11-14T05:12:54;10.65;;;4.45;;
62401;SDS011;48440;51.224;22.506;2022-11-14T05:15:19;10.82;;;4.60;;
62401;SDS011;48440;51.224;22.506;2022-11-14T05:17:45;13.13;;;4.63;;
62401;SDS011;48440;51.224;22.506;2022-11-14T05:20:11;12.65;;;6.18;;
62401;SDS011;48440;51.224;22.506;2022-11-14T05:22:37;11.65;;;5.07;;
62401;SDS011;48440;51.224;22.506;2022-11-14T05:25:03;11.10;;;4.10;;
62401;SDS011;48440;51.224;22.506;2022-11-14T05:27:29;12.23;;;4.55;;
62401;SDS011;48440;51.224;22.506;2022-11-14T05:29:55;11.10;;;4.60;;
62401;SDS011;48440;51.224;22.506;2022-11-14T05:32:21;15.52;;;5.03;;
62401;SDS011;48440;51.224;22.506;2022-11-14T05:34:46;14.68;;;4.72;;
62401;SDS011;48440;51.224;22.506;2022-11-14T05:37:12;10.50;;;4.80;;
62401;SDS011;48440;51.224;22.506;2022-11-14T05:39:37;9.82;;;4.80;;
62401;SDS011;48440;51.224;22.506;2022-11-14T05:42:03;12.38;;;4.80;;
62401;SDS011;48440;51.224;22.506;2022-11-14T05:44:28;11.57;;;4.80;;
62401;SDS011;48440;51.224;22.506;2022-11-14T05:46:54;15.88;;;5.35;;
62401;SDS011;48440;51.224;22.506;2022-11-14T05:49:19;11.63;;;5.20;;
62401;SDS011;48440;51.224;22.506;2022-11-14T05:51:45;14.02;;;6.00;;
62401;SDS011;48440;51.224;22.506;2022-11-14T05:54:11;11.65;;;5.40;;
62401;SDS011;48440;51.224;22.506;2022-11-14T05:56:36;14.13;;;6.15;;
62401;SDS011;48440;51.224;22.506;2022-11-14T05:59:02;20.98;;;7.32;;
62401;SDS011;48440;51.224;22.506;2022-11-14T06:01:27;13.00;;;5.90;;
62401;SDS011;48440;51.224;22.506;2022-11-14T06:03:53;13.27;;;6.18;;
62401;SDS011;48440;51.224;22.506;2022-11-14T06:06:19;14.75;;;6.32;;
62401;SDS011;48440;51.224;22.506;2022-11-14T06:08:46;15.23;;;6.15;;
62401;SDS011;48440;51.224;22.506;2022-11-14T06:11:16;14.63;;;5.97;;
62401;SDS011;48440;51.224;22.506;2022-11-14T06:13:43;14.55;;;6.47;;
62401;SDS011;48440;51.224;22.506;2022-11-14T06:16:10;15.82;;;6.72;;
62401;SDS011;48440;51.224;22.506;2022-11-14T06:18:37;14.55;;;6.55;;
62401;SDS011;48440;51.224;22.506;2022-11-14T06:21:04;15.65;;;7.78;;
62401;SDS011;48440;51.224;22.506;2022-11-14T06:23:36;16.43;;;7.73;;
62401;SDS011;48440;51.224;22.506;2022-11-14T06:26:02;17.90;;;8.02;;
62401;SDS011;48440;51.224;22.506;2022-11-14T06:28:30;17.23;;;7.43;;
62401;SDS011;48440;51.224;22.506;2022-11-14T06:30:57;16.75;;;7.53;;
62401;SDS011;48440;51.224;22.506;2022-11-14T06:33:24;17.13;;;8.50;;
62401;SDS011;48440;51.224;22.506;2022-11-14T06:35:50;18.40;;;8.73;;
62401;SDS011;48440;51.224;22.506;2022-11-14T06:38:15;19.08;;;8.48;;
62401;SDS011;48440;51.224;22.506;2022-11-14T06:40:41;18.60;;;7.80;;
62401;SDS011;48440;51.224;22.506;2022-11-14T06:43:06;20.25;;;8.90;;
62401;SDS011;48440;51.224;22.506;2022-11-14T06:45:32;19.13;;;9.20;;
62401;SDS011;48440;51.224;22.506;2022-11-14T06:47:57;20.17;;;9.40;;
62401;SDS011;48440;51.224;22.506;2022-11-14T06:50:24;19.17;;;8.70;;
62401;SDS011;48440;51.224;22.506;2022-11-14T06:52:49;19.33;;;8.73;;
62401;SDS011;48440;51.224;22.506;2022-11-14T06:55:14;16.50;;;8.82;;
62401;SDS011;48440;51.224;22.506;2022-11-14T06:57:40;20.25;;;8.75;;
62401;SDS011;48440;51.224;22.506;2022-11-14T07:00:05;19.85;;;9.68;;
62401;SDS011;48440;51.224;22.506;2022-11-14T07:02:32;18.58;;;8.70;;
62401;SDS011;48440;51.224;22.506;2022-11-14T07:04:57;20.80;;;8.55;;
62401;SDS011;48440;51.224;22.506;2022-11-14T07:07:23;18.42;;;8.90;;
62401;SDS011;48440;51.224;22.506;2022-11-14T07:09:48;16.42;;;8.93;;
62401;SDS011;48440;51.224;22.506;2022-11-14T07:12:13;15.48;;;9.25;;
62401;SDS011;48440;51.224;22.506;2022-11-14T07:14:39;17.63;;;8.98;;
62401;SDS011;48440;51.224;22.506;2022-11-14T07:17:05;19.10;;;8.68;;
62401;SDS011;48440;51.224;22.506;2022-11-14T07:19:30;15.93;;;7.78;;
62401;SDS011;48440;51.224;22.506;2022-11-14T07:21:55;16.92;;;9.10;;
62401;SDS011;48440;51.224;22.506;2022-11-14T07:24:21;16.35;;;8.57;;
62401;SDS011;48440;51.224;22.506;2022-11-14T07:26:46;16.27;;;8.52;;
62401;SDS011;48440;51.224;22.506;2022-11-14T07:29:12;17.48;;;8.43;;
62401;SDS011;48440;51.224;22.506;2022-11-14T07:31:38;16.80;;;8.10;;
62401;SDS011;48440;51.224;22.506;2022-11-14T07:34:04;16.35;;;8.05;;
62401;SDS011;48440;51.224;22.506;2022-11-14T07:36:30;13.65;;;7.63;;
62401;SDS011;48440;51.224;22.506;2022-11-14T07:38:55;14.10;;;8.30;;
62401;SDS011;48440;51.224;22.506;2022-11-14T07:41:21;15.27;;;7.72;;
62401;SDS011;48440;51.224;22.506;2022-11-14T07:43:47;12.60;;;7.00;;
62401;SDS011;48440;51.224;22.506;2022-11-14T07:46:13;13.45;;;6.72;;
62401;SDS011;48440;51.224;22.506;2022-11-14T07:48:40;13.82;;;7.22;;
62401;SDS011;48440;51.224;22.506;2022-11-14T07:51:08;12.55;;;7.15;;
62401;SDS011;48440;51.224;22.506;2022-11-14T07:53:37;14.15;;;7.82;;
62401;SDS011;48440;51.224;22.506;2022-11-14T07:56:04;12.25;;;6.78;;
62401;SDS011;48440;51.224;22.506;2022-11-14T07:58:30;13.75;;;7.28;;
62401;SDS011;48440;51.224;22.506;2022-11-14T08:00:59;13.85;;;7.18;;
62401;SDS011;48440;51.224;22.506;2022-11-14T08:03:26;13.25;;;6.88;;
62401;SDS011;48440;51.224;22.506;2022-11-14T08:05:58;10.55;;;6.68;;
62401;SDS011;48440;51.224;22.506;2022-11-14T08:08:28;13.98;;;7.07;;
62401;SDS011;48440;51.224;22.506;2022-11-14T08:10:57;14.73;;;7.50;;
62401;SDS011;48440;51.224;22.506;2022-11-14T08:13:23;12.55;;;7.75;;
62401;SDS011;48440;51.224;22.506;2022-11-14T08:15:49;12.77;;;6.95;;
62401;SDS011;48440;51.224;22.506;2022-11-14T08:18:15;16.60;;;8.23;;
62401;SDS011;48440;51.224;22.506;2022-11-14T08:20:41;13.95;;;8.20;;
62401;SDS011;48440;51.224;22.506;2022-11-14T08:23:08;14.27;;;8.23;;
62401;SDS011;48440;51.224;22.506;2022-11-14T08:25:34;17.20;;;8.43;;
62401;SDS011;48440;51.224;22.506;2022-11-14T08:27:59;17.58;;;8.75;;
62401;SDS011;48440;51.224;22.506;2022-11-14T08:30:25;16.30;;;8.88;;
62401;SDS011;48440;51.224;22.506;2022-11-14T08:32:53;16.73;;;8.68;;
62401;SDS011;48440;51.224;22.506;2022-11-14T08:35:19;16.65;;;8.55;;
62401;SDS011;48440;51.224;22.506;2022-11-14T08:37:44;25.10;;;10.75;;
62401;SDS011;48440;51.224;22.506;2022-11-14T08:40:10;17.15;;;9.02;;
62401;SDS011;48440;51.224;22.506;2022-11-14T08:42:36;18.85;;;9.65;;
62401;SDS011;48440;51.224;22.506;2022-11-14T08:45:02;15.43;;;8.70;;
62401;SDS011;48440;51.224;22.506;2022-11-14T08:47:27;15.55;;;8.40;;
62401;SDS011;48440;51.224;22.506;2022-11-14T08:49:53;16.20;;;8.23;;
62401;SDS011;48440;51.224;22.506;2022-11-14T08:52:18;19.70;;;8.88;;
62401;SDS011;48440;51.224;22.506;2022-11-14T08:54:45;19.48;;;9.40;;
62401;SDS011;48440;51.224;22.506;2022-11-14T08:57:10;17.67;;;9.30;;
62401;SDS011;48440;51.224;22.506;2022-11-14T08:59:39;17.23;;;8.60;;
62401;SDS011;48440;51.224;22.506;2022-11-14T09:02:05;15.70;;;8.73;;
62401;SDS011;48440;51.224;22.506;2022-11-14T09:04:30;14.00;;;8.70;;
62401;SDS011;48440;51.224;22.506;2022-11-14T09:06:55;19.10;;;8.23;;
62401;SDS011;48440;51.224;22.506;2022-11-14T09:09:22;17.92;;;7.57;;
62401;SDS011;48440;51.224;22.506;2022-11-14T09:11:48;13.57;;;7.55;;
62401;SDS011;48440;51.224;22.506;2022-11-14T09:14:13;14.85;;;8.05;;
62401;SDS011;48440;51.224;22.506;2022-11-14T09:16:39;17.73;;;7.97;;
62401;SDS011;48440;51.224;22.506;2022-11-14T09:19:04;15.07;;;7.68;;
62401;SDS011;48440;51.224;22.506;2022-11-14T09:21:30;14.65;;;7.55;;
62401;SDS011;48440;51.224;22.506;2022-11-14T09:23:55;14.38;;;8.27;;
62401;SDS011;48440;51.224;22.506;2022-11-14T09:26:21;16.42;;;8.15;;
62401;SDS011;48440;51.224;22.506;2022-11-14T09:28:46;16.10;;;8.05;;
62401;SDS011;48440;51.224;22.506;2022-11-14T09:31:12;16.48;;;8.55;;
62401;SDS011;48440;51.224;22.506;2022-11-14T09:33:38;20.33;;;7.95;;
62401;SDS011;48440;51.224;22.506;2022-11-14T09:36:04;12.90;;;6.60;;
62401;SDS011;48440;51.224;22.506;2022-11-14T09:38:32;15.75;;;7.82;;
62401;SDS011;48440;51.224;22.506;2022-11-14T09:48:46;14.02;;;6.90;;
62401;SDS011;48440;51.224;22.506;2022-11-14T09:51:18;17.55;;;8.05;;
62401;SDS011;48440;51.224;22.506;2022-11-14T09:56:21;16.38;;;7.35;;
62401;SDS011;48440;51.224;22.506;2022-11-14T09:58:49;14.88;;;7.00;;
62401;SDS011;48440;51.224;22.506;2022-11-14T10:12:17;15.55;;;7.65;;
62401;SDS011;48440;51.224;22.506;2022-11-14T10:20:00;18.45;;;9.68;;
62401;SDS011;48440;51.224;22.506;2022-11-14T10:25:28;17.55;;;7.97;;
62401;SDS011;48440;51.224;22.506;2022-11-14T10:31:04;17.90;;;7.97;;
62401;SDS011;48440;51.224;22.506;2022-11-14T10:33:44;19.05;;;8.50;;
62401;SDS011;48440;51.224;22.506;2022-11-14T10:41:40;18.30;;;8.70;;
62401;SDS011;48440;51.224;22.506;2022-11-14T10:44:12;22.15;;;8.57;;
62401;SDS011;48440;51.224;22.506;2022-11-14T10:46:53;16.20;;;8.63;;
62401;SDS011;48440;51.224;22.506;2022-11-14T10:49:23;19.27;;;8.40;;
62401;SDS011;48440;51.224;22.506;2022-11-14T10:51:51;20.08;;;8.88;;
62401;SDS011;48440;51.224;22.506;2022-11-14T10:54:26;19.35;;;8.80;;
62401;SDS011;48440;51.224;22.506;2022-11-14T10:56:56;18.65;;;8.45;;
62401;SDS011;48440;51.224;22.506;2022-11-14T10:59:21;20.67;;;10.25;;
62401;SDS011;48440;51.224;22.506;2022-11-14T11:06:46;19.70;;;9.27;;
62401;SDS011;48440;51.224;22.506;2022-11-14T11:09:16;19.50;;;9.25;;
62401;SDS011;48440;51.224;22.506;2022-11-14T11:12:22;19.17;;;8.75;;
62401;SDS011;48440;51.224;22.506;2022-11-14T11:18:01;21.15;;;9.13;;
62401;SDS011;48440;51.224;22.506;2022-11-14T11:20:33;21.55;;;9.75;;
62401;SDS011;48440;51.224;22.506;2022-11-14T11:23:15;20.48;;;10.02;;
62401;SDS011;48440;51.224;22.506;2022-11-14T11:25:52;23.38;;;9.85;;
62401;SDS011;48440;51.224;22.506;2022-11-14T11:28:24;27.08;;;9.73;;
62401;SDS011;48440;51.224;22.506;2022-11-14T11:30:56;21.50;;;9.68;;
62401;SDS011;48440;51.224;22.506;2022-11-14T11:33:25;20.65;;;9.23;;
62401;SDS011;48440;51.224;22.506;2022-11-14T11:38:39;21.80;;;9.50;;
62401;SDS011;48440;51.224;22.506;2022-11-14T11:41:10;21.27;;;9.98;;
62401;SDS011;48440;51.224;22.506;2022-11-14T11:44:05;19.38;;;8.88;;
62401;SDS011;48440;51.224;22.506;2022-11-14T11:46:49;21.60;;;9.02;;
62401;SDS011;48440;51.224;22.506;2022-11-14T11:51:54;21.60;;;10.68;;
62401;SDS011;48440;51.224;22.506;2022-11-14T11:54:29;20.38;;;9.18;;
62401;SDS011;48440;51.224;22.506;2022-11-14T11:57:08;20.70;;;11.30;;
62401;SDS011;48440;51.224;22.506;2022-11-14T11:59:41;25.83;;;10.25;;
62401;SDS011;48440;51.224;22.506;2022-11-14T12:04:50;22.20;;;10.25;;
62401;SDS011;48440;51.224;22.506;2022-11-14T12:09:49;22.23;;;9.82;;
62401;SDS011;48440;51.224;22.506;2022-11-14T12:31:23;21.35;;;9.75;;
62401;SDS011;48440;51.224;22.506;2022-11-14T12:34:00;23.30;;;11.23;;
62401;SDS011;48440;51.224;22.506;2022-11-14T12:36:32;25.40;;;10.40;;
62401;SDS011;48440;51.224;22.506;2022-11-14T12:38:59;26.52;;;10.80;;
62401;SDS011;48440;51.224;22.506;2022-11-14T12:41:30;23.60;;;11.15;;
62401;SDS011;48440;51.224;22.506;2022-11-14T12:44:18;26.60;;;11.13;;
62401;SDS011;48440;51.224;22.506;2022-11-14T12:52:03;29.17;;;13.00;;
62401;SDS011;48440;51.224;22.506;2022-11-14T12:57:08;25.45;;;11.73;;
62401;SDS011;48440;51.224;22.506;2022-11-14T13:00:02;26.95;;;11.85;;
62401;SDS011;48440;51.224;22.506;2022-11-14T13:05:22;23.70;;;10.45;;
62401;SDS011;48440;51.224;22.506;2022-11-14T13:10:38;32.08;;;12.73;;
62401;SDS011;48440;51.224;22.506;2022-11-14T13:13:09;26.40;;;11.82;;
62401;SDS011;48440;51.224;22.506;2022-11-14T13:15:55;29.15;;;12.80;;
62401;SDS011;48440;51.224;22.506;2022-11-14T13:18:50;29.02;;;13.07;;
62401;SDS011;48440;51.224;22.506;2022-11-14T13:27:23;38.25;;;15.30;;
62401;SDS011;48440;51.224;22.506;2022-11-14T13:29:53;33.55;;;12.73;;
62401;SDS011;48440;51.224;22.506;2022-11-14T13:35:17;29.05;;;12.23;;
62401;SDS011;48440;51.224;22.506;2022-11-14T13:51:56;33.97;;;14.25;;
62401;SDS011;48440;51.224;22.506;2022-11-14T13:54:21;38.83;;;13.68;;
62401;SDS011;48440;51.224;22.506;2022-11-14T13:59:56;34.80;;;13.23;;
62401;SDS011;48440;51.224;22.506;2022-11-14T14:19:00;34.10;;;15.32;;
62401;SDS011;48440;51.224;22.506;2022-11-14T14:21:47;32.55;;;14.18;;
62401;SDS011;48440;51.224;22.506;2022-11-14T14:32:13;34.08;;;13.45;;
62401;SDS011;48440;51.224;22.506;2022-11-14T14:34:40;37.38;;;15.07;;
62401;SDS011;48440;51.224;22.506;2022-11-14T14:37:23;41.00;;;16.27;;
62401;SDS011;48440;51.224;22.506;2022-11-14T14:39:57;37.03;;;13.48;;
62401;SDS011;48440;51.224;22.506;2022-11-14T14:42:38;34.70;;;14.35;;
62401;SDS011;48440;51.224;22.506;2022-11-14T14:45:12;38.55;;;15.68;;
62401;SDS011;48440;51.224;22.506;2022-11-14T14:47:40;33.05;;;14.65;;
62401;SDS011;48440;51.224;22.506;2022-11-14T14:52:58;36.40;;;14.18;;
62401;SDS011;48440;51.224;22.506;2022-11-14T14:55:25;35.75;;;13.85;;
62401;SDS011;48440;51.224;22.506;2022-11-14T14:58:15;35.00;;;14.55;;
62401;SDS011;48440;51.224;22.506;2022-11-14T15:00:57;33.83;;;14.40;;
62401;SDS011;48440;51.224;22.506;2022-11-14T15:03:24;29.63;;;13.43;;
62401;SDS011;48440;51.224;22.506;2022-11-14T15:06:17;32.88;;;13.70;;
62401;SDS011;48440;51.224;22.506;2022-11-14T15:08:45;36.78;;;13.55;;
62401;SDS011;48440;51.224;22.506;2022-11-14T15:11:12;37.97;;;14.35;;
62401;SDS011;48440;51.224;22.506;2022-11-14T15:13:38;36.03;;;13.52;;
62401;SDS011;48440;51.224;22.506;2022-11-14T15:16:06;33.72;;;12.88;;
62401;SDS011;48440;51.224;22.506;2022-11-14T15:18:32;38.40;;;15.00;;
62401;SDS011;48440;51.224;22.506;2022-11-14T15:23:36;36.42;;;16.63;;
62401;SDS011;48440;51.224;22.506;2022-11-14T15:26:03;35.80;;;15.18;;
62401;SDS011;48440;51.224;22.506;2022-11-14T15:28:40;36.75;;;16.10;;
62401;SDS011;48440;51.224;22.506;2022-11-14T15:31:11;34.20;;;14.38;;
62401;SDS011;48440;51.224;22.506;2022-11-14T15:33:41;35.20;;;15.15;;
62401;SDS011;48440;51.224;22.506;2022-11-14T15:36:08;36.33;;;14.40;;
62401;SDS011;48440;51.224;22.506;2022-11-14T15:38:36;36.50;;;15.13;;
62401;SDS011;48440;51.224;22.506;2022-11-14T15:41:08;35.97;;;14.57;;
62401;SDS011;48440;51.224;22.506;2022-11-14T15:49:00;29.58;;;12.90;;
62401;SDS011;48440;51.224;22.506;2022-11-14T15:51:38;34.38;;;13.40;;
62401;SDS011;48440;51.224;22.506;2022-11-14T15:54:21;32.97;;;14.18;;
62401;SDS011;48440;51.224;22.506;2022-11-14T15:56:46;31.92;;;12.52;;
62401;SDS011;48440;51.224;22.506;2022-11-14T15:59:12;32.45;;;13.68;;
62401;SDS011;48440;51.224;22.506;2022-11-14T16:01:37;29.95;;;13.27;;
62401;SDS011;48440;51.224;22.506;2022-11-14T16:04:03;31.73;;;13.30;;
62401;SDS011;48440;51.224;22.506;2022-11-14T16:06:29;31.55;;;13.02;;
62401;SDS011;48440;51.224;22.506;2022-11-14T16:08:56;28.38;;;14.23;;
62401;SDS011;48440;51.224;22.506;2022-11-14T16:11:22;30.50;;;12.90;;
62401;SDS011;48440;51.224;22.506;2022-11-14T16:13:47;32.35;;;13.65;;
62401;SDS011;48440;51.224;22.506;2022-11-14T16:16:13;30.13;;;13.05;;
62401;SDS011;48440;51.224;22.506;2022-11-14T16:18:38;31.67;;;13.45;;
62401;SDS011;48440;51.224;22.506;2022-11-14T16:21:03;34.88;;;13.85;;
62401;SDS011;48440;51.224;22.506;2022-11-14T16:23:29;27.48;;;12.45;;
62401;SDS011;48440;51.224;22.506;2022-11-14T16:25:54;29.90;;;13.43;;
62401;SDS011;48440;51.224;22.506;2022-11-14T16:28:20;26.42;;;11.90;;
62401;SDS011;48440;51.224;22.506;2022-11-14T16:30:45;32.90;;;12.60;;
62401;SDS011;48440;51.224;22.506;2022-11-14T16:33:11;30.77;;;12.80;;
62401;SDS011;48440;51.224;22.506;2022-11-14T16:35:36;31.88;;;12.57;;
62401;SDS011;48440;51.224;22.506;2022-11-14T16:38:02;32.78;;;12.82;;
62401;SDS011;48440;51.224;22.506;2022-11-14T16:40:27;32.83;;;12.38;;
62401;SDS011;48440;51.224;22.506;2022-11-14T16:42:57;27.20;;;12.35;;
62401;SDS011;48440;51.224;22.506;2022-11-14T16:45:23;31.52;;;12.35;;
62401;SDS011;48440;51.224;22.506;2022-11-14T16:47:50;26.10;;;11.77;;
62401;SDS011;48440;51.224;22.506;2022-11-14T16:50:17;27.23;;;11.98;;
62401;SDS011;48440;51.224;22.506;2022-11-14T16:52:43;30.40;;;12.07;;
62401;SDS011;48440;51.224;22.506;2022-11-14T16:55:09;25.38;;;12.40;;
62401;SDS011;48440;51.224;22.506;2022-11-14T16:57:36;28.20;;;12.25;;
62401;SDS011;48440;51.224;22.506;2022-11-14T17:00:03;25.23;;;11.27;;
62401;SDS011;48440;51.224;22.506;2022-11-14T17:02:30;29.33;;;12.70;;